createdAt,value
2022-12-23T00:01:51.767Z,7.77
2022-12-23T00:04:18.511Z,7.53
2022-12-23T00:06:49.936Z,7.49
2022-12-23T00:09:19.118Z,7.55
2022-12-23T00:11:45.861Z,7.54
2022-12-23T00:14:20.136Z,7.48
2022-12-23T00:16:48.729Z,7.54
2022-12-23T00:19:15.450Z,7.28
2022-12-23T00:21:44.650Z,7.19
2022-12-23T00:24:11.802Z,7.16
2022-12-23T00:26:38.699Z,7.26
2022-12-23T00:29:05.334Z,7.30
2022-12-23T00:31:36.654Z,7.39
2022-12-23T00:34:06.207Z,7.40
2022-12-23T00:36:32.974Z,7.44
2022-12-23T00:39:00.440Z,7.40
2022-12-23T00:41:27.302Z,7.47
2022-12-23T00:43:54.031Z,7.41
2022-12-23T00:46:20.699Z,7.43
2022-12-23T00:48:52.740Z,7.38
2022-12-23T00:51:22.335Z,7.44
2022-12-23T00:53:49.001Z,7.50
2022-12-23T00:56:15.692Z,7.42
2022-12-23T00:58:45.094Z,7.44
2022-12-23T01:01:11.727Z,7.40
2022-12-23T01:03:38.580Z,7.30
2022-12-23T01:06:08.375Z,7.39
2022-12-23T01:08:35.139Z,7.39
2022-12-23T01:11:06.701Z,7.45
2022-12-23T01:13:33.936Z,7.45
2022-12-23T01:16:09.343Z,7.45
2022-12-23T01:18:41.651Z,7.39
2022-12-23T01:21:10.200Z,7.40
2022-12-23T01:23:39.426Z,7.39
2022-12-23T01:26:10.021Z,7.38
2022-12-23T01:28:36.708Z,7.47
2022-12-23T01:31:05.536Z,7.45
2022-12-23T01:33:33.401Z,7.34
2022-12-23T01:36:07.073Z,7.23
2022-12-23T01:38:34.972Z,7.15
2022-12-23T01:41:01.727Z,7.14
2022-12-23T01:43:49.668Z,7.22
2022-12-23T01:46:16.648Z,7.38
2022-12-23T01:48:49.081Z,7.40
2022-12-23T01:51:26.298Z,7.19
2022-12-23T01:53:59.575Z,7.18
2022-12-23T01:56:36.836Z,7.29
2022-12-23T01:59:07.968Z,7.38
2022-12-23T02:01:37.299Z,7.38
2022-12-23T02:04:10.037Z,7.29
2022-12-23T02:06:48.392Z,7.17
2022-12-23T02:09:27.002Z,7.21
2022-12-23T02:12:28.418Z,7.22
2022-12-23T02:15:05.585Z,7.31
2022-12-23T02:17:52.484Z,7.46
2022-12-23T02:20:19.078Z,7.45
2022-12-23T02:22:59.955Z,7.53
2022-12-23T02:25:42.635Z,7.51
2022-12-23T02:28:40.655Z,7.51
2022-12-23T02:31:10.157Z,7.53
2022-12-23T02:33:51.499Z,7.55
2022-12-23T02:36:41.419Z,7.50
2022-12-23T02:39:22.232Z,7.57
2022-12-23T02:41:57.486Z,7.55
2022-12-23T02:45:02.540Z,7.61
2022-12-23T02:47:36.737Z,7.48
2022-12-23T02:50:11.762Z,7.48
2022-12-23T02:52:40.535Z,7.44
2022-12-23T02:55:15.824Z,7.25
2022-12-23T02:57:47.816Z,7.25
2022-12-23T03:00:17.662Z,7.24
2022-12-23T03:02:46.639Z,7.40
2022-12-23T03:05:30.928Z,7.48
2022-12-23T03:08:04.692Z,7.43
2022-12-23T03:10:54.114Z,7.34
2022-12-23T03:13:42.685Z,7.46
2022-12-23T03:16:27.946Z,7.56
2022-12-23T03:19:22.288Z,7.51
2022-12-23T03:21:54.942Z,7.44
2022-12-23T03:24:27.254Z,7.47
2022-12-23T03:27:12.466Z,7.59
2022-12-23T03:30:13.166Z,7.56
2022-12-23T03:33:32.117Z,7.67
2022-12-23T03:36:03.970Z,7.58
2022-12-23T03:38:33.540Z,7.60
2022-12-23T03:41:09.588Z,7.65
2022-12-23T03:43:48.387Z,7.57
2022-12-23T03:46:23.912Z,7.54
2022-12-23T03:49:03.471Z,7.62
2022-12-23T03:51:56.321Z,7.63
2022-12-23T03:54:35.877Z,7.66
2022-12-23T03:57:06.107Z,7.65
2022-12-23T03:59:36.077Z,7.71
2022-12-23T04:02:25.222Z,7.75
2022-12-23T04:05:26.312Z,7.74
2022-12-23T04:08:14.761Z,7.72
2022-12-23T04:10:41.639Z,7.77
2022-12-23T04:13:14.133Z,7.73
2022-12-23T04:15:47.731Z,7.56
2022-12-23T04:18:14.429Z,7.50
2022-12-23T04:20:41.999Z,7.62
2022-12-23T04:23:09.943Z,7.68
2022-12-23T04:25:36.900Z,7.63
2022-12-23T04:28:03.697Z,7.55
2022-12-23T04:30:34.546Z,7.61
2022-12-23T04:33:01.799Z,7.62
2022-12-23T04:35:28.478Z,7.55
2022-12-23T04:37:55.224Z,7.56
2022-12-23T04:40:21.822Z,7.65
2022-12-23T04:42:48.632Z,7.64
2022-12-23T04:45:15.274Z,7.62
2022-12-23T04:47:41.925Z,7.60
2022-12-23T04:50:13.305Z,7.68
2022-12-23T04:52:40.507Z,7.70
2022-12-23T04:55:11.383Z,7.69
2022-12-23T04:57:37.991Z,7.68
2022-12-23T05:00:05.782Z,7.73
2022-12-23T05:02:32.519Z,7.77
2022-12-23T05:04:59.248Z,7.82
2022-12-23T05:07:26.009Z,7.80
2022-12-23T05:09:55.838Z,7.79
2022-12-23T05:12:25.419Z,7.82
2022-12-23T05:14:52.107Z,7.90
2022-12-23T05:17:26.904Z,7.91
2022-12-23T05:19:56.250Z,7.94
2022-12-23T05:22:22.825Z,7.92
2022-12-23T05:24:49.428Z,7.93
2022-12-23T05:27:16.040Z,7.91
2022-12-23T05:29:42.671Z,7.86
2022-12-23T05:32:09.415Z,7.82
2022-12-23T05:34:36.060Z,7.86
2022-12-23T05:37:02.700Z,7.75
2022-12-23T05:39:29.541Z,7.66
2022-12-23T05:41:57.276Z,7.81
2022-12-23T05:44:23.852Z,7.78
2022-12-23T05:46:50.488Z,7.78
2022-12-23T05:49:20.001Z,7.81
2022-12-23T05:51:46.641Z,7.76
2022-12-23T05:54:13.329Z,7.72
2022-12-23T05:56:39.954Z,7.72
2022-12-23T05:59:07.781Z,7.75
2022-12-23T06:01:37.512Z,7.69
2022-12-23T06:04:04.457Z,7.55
2022-12-23T06:06:31.125Z,7.48
2022-12-23T06:09:01.268Z,7.48
2022-12-23T06:11:28.162Z,7.50
2022-12-23T06:13:59.881Z,7.50
2022-12-23T06:16:30.397Z,7.56
2022-12-23T06:18:57.201Z,7.53
2022-12-23T06:21:23.901Z,7.35
2022-12-23T06:23:50.507Z,7.42
2022-12-23T06:26:17.493Z,7.43
2022-12-23T06:28:44.126Z,7.43
2022-12-23T06:31:10.869Z,7.47
2022-12-23T06:33:38.881Z,7.52
2022-12-23T06:36:06.225Z,7.58
2022-12-23T06:38:32.851Z,7.65
2022-12-23T06:40:59.565Z,7.55
2022-12-23T06:43:26.309Z,7.55
2022-12-23T06:45:52.943Z,7.64
2022-12-23T06:48:19.630Z,7.53
2022-12-23T06:50:46.472Z,7.47
2022-12-23T06:53:13.462Z,7.51
2022-12-23T06:55:40.246Z,7.59
2022-12-23T06:58:06.826Z,7.61
2022-12-23T07:00:36.334Z,7.53
2022-12-23T07:03:05.926Z,7.52
2022-12-23T07:05:37.241Z,7.59
2022-12-23T07:08:04.648Z,7.59
2022-12-23T07:10:31.251Z,7.61
2022-12-23T07:12:57.842Z,7.61
2022-12-23T07:15:27.110Z,7.65
2022-12-23T07:18:01.890Z,7.66
2022-12-23T07:20:28.675Z,7.65
2022-12-23T07:22:56.044Z,7.61
2022-12-23T07:25:23.411Z,7.72
2022-12-23T07:27:56.013Z,7.67
2022-12-23T07:30:23.265Z,7.63
2022-12-23T07:32:54.477Z,7.64
2022-12-23T07:35:22.406Z,7.75
2022-12-23T07:37:59.114Z,7.71
2022-12-23T07:40:28.434Z,7.67
2022-12-23T07:42:57.303Z,7.65
2022-12-23T07:45:27.446Z,7.57
2022-12-23T07:47:55.062Z,7.64
2022-12-23T07:50:22.238Z,7.63
2022-12-23T07:52:48.938Z,7.68
2022-12-23T07:55:17.073Z,7.88
2022-12-23T07:57:45.641Z,7.76
2022-12-23T08:00:12.583Z,8.06
2022-12-23T08:02:39.344Z,8.30
2022-12-23T08:05:07.828Z,8.41
2022-12-23T08:07:34.545Z,8.34
2022-12-23T08:10:01.347Z,8.16
2022-12-23T08:12:27.998Z,8.02
2022-12-23T08:14:55.880Z,8.12
2022-12-23T08:17:26.695Z,8.33
2022-12-23T08:19:53.358Z,8.27
2022-12-23T08:22:19.932Z,8.19
2022-12-23T08:24:46.545Z,8.21
2022-12-23T08:27:13.121Z,8.22
2022-12-23T08:29:40.304Z,8.28
2022-12-23T08:32:07.476Z,8.29
2022-12-23T08:34:34.598Z,8.30
2022-12-23T08:37:01.578Z,8.28
2022-12-23T08:39:28.451Z,8.25
2022-12-23T08:41:58.009Z,8.25
2022-12-23T08:44:24.686Z,8.17
2022-12-23T08:46:51.444Z,8.16
2022-12-23T08:49:21.453Z,8.15
2022-12-23T08:51:48.083Z,8.18
2022-12-23T08:54:15.210Z,8.19
2022-12-23T08:56:45.200Z,8.15
2022-12-23T08:59:19.129Z,8.14
2022-12-23T09:01:49.724Z,8.40
2022-12-23T09:04:17.851Z,8.21
2022-12-23T09:06:44.993Z,8.12
2022-12-23T09:09:13.775Z,8.14
2022-12-23T09:11:40.424Z,8.26
2022-12-23T09:14:07.251Z,8.30
2022-12-23T09:16:34.134Z,8.19
2022-12-23T09:19:02.274Z,8.18
2022-12-23T09:21:30.720Z,8.31
2022-12-23T09:23:57.472Z,8.19
2022-12-23T09:26:29.657Z,8.17
2022-12-23T09:28:57.533Z,8.12
2022-12-23T09:31:34.317Z,8.12
2022-12-23T09:34:05.323Z,8.20
2022-12-23T09:36:32.259Z,8.24
2022-12-23T09:39:02.495Z,8.17
2022-12-23T09:42:06.740Z,8.08
2022-12-23T09:44:44.971Z,8.09
2022-12-23T09:47:24.081Z,8.09
2022-12-23T09:49:54.785Z,8.09
2022-12-23T09:52:33.515Z,8.05
2022-12-23T09:55:00.215Z,8.19
2022-12-23T09:57:36.559Z,8.17
2022-12-23T10:00:22.800Z,8.12
2022-12-23T10:03:11.385Z,8.16
2022-12-23T10:06:13.110Z,8.25
2022-12-23T10:08:44.997Z,8.17
2022-12-23T10:11:26.845Z,8.20
2022-12-23T10:14:00.098Z,8.37
2022-12-23T10:16:34.777Z,8.37
2022-12-23T10:19:14.582Z,8.45
2022-12-23T10:21:48.223Z,8.47
2022-12-23T10:24:24.901Z,8.35
2022-12-23T10:26:57.376Z,8.37
2022-12-23T10:29:28.100Z,8.41
2022-12-23T10:32:19.425Z,8.52
2022-12-23T10:35:06.641Z,8.52
2022-12-23T10:37:52.087Z,8.72
2022-12-23T10:40:44.477Z,8.99
2022-12-23T10:43:43.423Z,8.96
2022-12-23T10:46:28.055Z,8.98
2022-12-23T10:49:18.143Z,8.98
2022-12-23T10:51:55.117Z,8.94
2022-12-23T10:54:32.206Z,8.93
2022-12-23T10:56:59.231Z,9.01
2022-12-23T10:59:31.181Z,9.15
2022-12-23T11:02:36.329Z,9.34
2022-12-23T11:05:16.012Z,9.28
2022-12-23T11:07:49.146Z,9.73
2022-12-23T11:10:22.184Z,9.63
2022-12-23T11:12:51.701Z,9.45
2022-12-23T11:15:29.007Z,9.37
2022-12-23T11:18:15.996Z,9.37
2022-12-23T11:20:45.806Z,9.49
2022-12-23T11:23:27.117Z,9.32
2022-12-23T11:26:20.733Z,9.36
2022-12-23T11:29:06.687Z,9.41
2022-12-23T11:31:35.483Z,9.50
2022-12-23T11:34:18.494Z,9.50
2022-12-23T11:37:07.749Z,9.52
2022-12-23T11:39:37.587Z,9.59
2022-12-23T11:42:15.770Z,9.52
2022-12-23T11:44:51.222Z,9.55
2022-12-23T11:47:40.234Z,9.56
2022-12-23T11:50:47.957Z,9.54
2022-12-23T11:53:31.468Z,9.63
2022-12-23T11:56:20.123Z,9.67
2022-12-23T11:59:02.949Z,9.76
2022-12-23T12:01:35.281Z,10.51
2022-12-23T12:04:13.501Z,10.03
2022-12-23T12:06:56.006Z,9.91
2022-12-23T12:09:28.993Z,9.84
2022-12-23T12:12:14.861Z,9.80
2022-12-23T12:14:45.209Z,9.89
2022-12-23T12:17:20.569Z,10.00
2022-12-23T12:19:56.619Z,9.97
2022-12-23T12:22:33.595Z,10.04
2022-12-23T12:25:06.223Z,10.11
2022-12-23T12:27:38.393Z,10.07
2022-12-23T12:30:13.907Z,10.16
2022-12-23T12:33:03.783Z,10.50
2022-12-23T12:35:53.733Z,10.46
2022-12-23T12:38:33.772Z,10.32
2022-12-23T12:41:21.468Z,10.20
2022-12-23T12:44:18.985Z,10.26
2022-12-23T12:47:28.005Z,10.35
2022-12-23T12:50:04.906Z,10.23
2022-12-23T12:52:39.822Z,10.87
2022-12-23T12:55:22.743Z,10.76
2022-12-23T12:57:49.482Z,10.56
2022-12-23T13:00:21.587Z,10.48
2022-12-23T13:03:00.225Z,10.34
2022-12-23T13:05:39.392Z,10.29
2022-12-23T13:08:15.441Z,10.28
2022-12-23T13:10:54.564Z,10.27
2022-12-23T13:13:48.578Z,10.27
2022-12-23T13:16:27.340Z,10.23
2022-12-23T13:18:56.675Z,10.61
2022-12-23T13:21:42.158Z,10.71
2022-12-23T13:24:20.123Z,10.66
2022-12-23T13:27:13.907Z,10.57
2022-12-23T13:30:12.542Z,11.20
2022-12-23T13:33:06.991Z,10.71
2022-12-23T13:36:11.772Z,10.51
2022-12-23T13:38:53.520Z,10.45
2022-12-23T13:41:26.529Z,10.42
2022-12-23T13:44:10.322Z,10.57
2022-12-23T13:47:18.027Z,10.70
2022-12-23T13:49:54.380Z,10.48
2022-12-23T13:52:27.564Z,10.40
2022-12-23T13:55:52.914Z,10.38
2022-12-23T13:58:25.990Z,10.36
2022-12-23T14:00:58.569Z,10.32
2022-12-23T14:03:39.045Z,10.32
2022-12-23T14:06:46.725Z,10.99
2022-12-23T14:09:16.405Z,11.16
2022-12-23T14:11:48.308Z,10.96
2022-12-23T14:14:22.671Z,10.78
2022-12-23T14:17:33.256Z,10.55
2022-12-23T14:20:36.889Z,10.45
2022-12-23T14:23:59.517Z,10.43
2022-12-23T14:27:04.681Z,10.65
2022-12-23T14:29:56.380Z,10.80
2022-12-23T14:32:36.249Z,10.72
2022-12-23T14:35:16.384Z,10.81
2022-12-23T14:37:47.779Z,11.41
2022-12-23T14:40:40.632Z,11.51
2022-12-23T14:43:23.401Z,11.02
2022-12-23T14:45:51.050Z,10.81
2022-12-23T14:49:16.249Z,11.13
2022-12-23T14:51:44.621Z,11.36
2022-12-23T14:54:16.858Z,11.05
2022-12-23T14:56:46.476Z,11.02
2022-12-23T14:59:40.943Z,10.81
2022-12-23T15:02:42.855Z,10.67
2022-12-23T15:05:15.166Z,10.56
2022-12-23T15:07:48.411Z,10.50
2022-12-23T15:10:22.214Z,10.45
2022-12-23T15:13:03.978Z,10.38
2022-12-23T15:15:32.278Z,10.38
2022-12-23T15:18:15.885Z,10.41
2022-12-23T15:20:42.550Z,10.41
2022-12-23T15:23:17.339Z,10.39
2022-12-23T15:25:56.700Z,10.34
2022-12-23T15:28:32.423Z,10.31
2022-12-23T15:31:01.139Z,10.32
2022-12-23T15:36:32.850Z,10.35
2022-12-23T15:39:08.158Z,10.34
2022-12-23T15:41:47.930Z,10.37
2022-12-23T15:44:21.879Z,10.32
2022-12-23T15:46:50.542Z,10.35
2022-12-23T15:49:26.741Z,10.31
2022-12-23T15:52:07.837Z,10.29
2022-12-23T15:54:59.564Z,10.30
2022-12-23T15:57:32.471Z,10.28
2022-12-23T16:00:19.996Z,10.35
2022-12-23T16:03:00.249Z,10.37
2022-12-23T16:05:39.198Z,10.23
2022-12-23T16:08:12.194Z,10.17
2022-12-23T16:10:40.265Z,10.16
2022-12-23T16:13:33.791Z,10.17
2022-12-23T16:16:19.000Z,10.16
2022-12-23T16:18:47.861Z,10.14
2022-12-23T16:21:15.908Z,10.19
2022-12-23T16:23:53.877Z,10.41
2022-12-23T16:26:31.655Z,10.32
2022-12-23T16:29:13.148Z,10.42
2022-12-23T16:32:08.132Z,10.34
2022-12-23T16:34:47.445Z,10.25
2022-12-23T16:37:15.498Z,10.22
2022-12-23T16:39:49.544Z,10.19
2022-12-23T16:42:26.654Z,10.15
2022-12-23T16:45:01.445Z,10.14
2022-12-23T16:47:29.612Z,10.21
2022-12-23T16:50:03.298Z,10.20
2022-12-23T16:52:38.393Z,10.19
2022-12-23T16:55:17.226Z,10.71
2022-12-23T16:57:44.956Z,10.87
2022-12-23T17:00:32.360Z,10.71
2022-12-23T17:03:01.921Z,10.56
2022-12-23T17:05:34.002Z,10.55
2022-12-23T17:08:11.721Z,10.44
2022-12-23T17:10:45.073Z,10.46
2022-12-23T17:13:18.567Z,10.48
2022-12-23T17:15:45.925Z,10.45
2022-12-23T17:18:15.718Z,10.44
2022-12-23T17:20:53.969Z,10.45
2022-12-23T17:23:33.285Z,10.44
2022-12-23T17:25:59.907Z,10.49
2022-12-23T17:28:36.215Z,10.42
2022-12-23T17:31:14.348Z,10.43
2022-12-23T17:33:45.232Z,10.34
2022-12-23T17:36:12.377Z,10.33
2022-12-23T17:38:41.853Z,10.25
2022-12-23T17:41:30.426Z,10.24
2022-12-23T17:43:58.080Z,10.27
2022-12-23T17:46:29.690Z,10.26
2022-12-23T17:48:56.550Z,10.27
2022-12-23T17:51:23.773Z,10.35
2022-12-23T17:53:57.813Z,10.44
2022-12-23T17:56:26.874Z,10.50
2022-12-23T17:58:56.317Z,10.46
2022-12-23T18:01:32.557Z,10.49
2022-12-23T18:04:03.213Z,10.53
2022-12-23T18:06:29.913Z,10.44
2022-12-23T18:09:04.015Z,10.33
2022-12-23T18:11:40.376Z,10.24
2022-12-23T18:14:13.855Z,10.23
2022-12-23T18:16:46.372Z,10.25
2022-12-23T18:19:23.047Z,10.30
2022-12-23T18:21:51.383Z,10.24
2022-12-23T18:24:19.579Z,10.24
2022-12-23T18:26:49.243Z,10.19
2022-12-23T18:29:16.030Z,10.26
2022-12-23T18:31:51.689Z,10.23
2022-12-23T18:34:28.674Z,10.28
2022-12-23T18:36:56.219Z,10.39
2022-12-23T18:39:48.730Z,10.54
2022-12-23T18:42:20.903Z,10.48
2022-12-23T18:44:55.769Z,10.33
2022-12-23T18:47:37.479Z,10.26
2022-12-23T18:50:08.318Z,10.19
2022-12-23T18:52:38.919Z,10.07
2022-12-23T18:55:13.050Z,10.00
2022-12-23T18:57:42.967Z,10.13
2022-12-23T19:00:29.712Z,10.16
2022-12-23T19:02:57.142Z,10.15
2022-12-23T19:05:29.238Z,10.13
2022-12-23T19:07:57.147Z,10.15
2022-12-23T19:10:30.687Z,10.10
2022-12-23T19:12:57.234Z,9.95
2022-12-23T19:15:27.317Z,9.95
2022-12-23T19:17:59.743Z,9.94
2022-12-23T19:20:26.811Z,9.99
2022-12-23T19:22:53.528Z,10.09
2022-12-23T19:25:21.157Z,10.15
2022-12-23T19:27:51.563Z,10.13
2022-12-23T19:30:19.643Z,10.16
2022-12-23T19:32:47.790Z,10.12
2022-12-23T19:35:15.424Z,10.02
2022-12-23T19:37:42.878Z,9.94
2022-12-23T19:40:10.894Z,10.01
2022-12-23T19:42:40.786Z,10.04
2022-12-23T19:45:12.183Z,9.98
2022-12-23T19:47:39.263Z,9.93
2022-12-23T19:50:07.129Z,9.92
2022-12-23T19:52:34.104Z,9.86
2022-12-23T19:55:00.828Z,9.81
2022-12-23T19:57:30.243Z,9.81
2022-12-23T19:59:56.964Z,9.85
2022-12-23T20:02:23.604Z,9.87
2022-12-23T20:04:50.208Z,9.87
2022-12-23T20:07:19.512Z,10.08
2022-12-23T20:09:46.288Z,9.99
2022-12-23T20:12:13.091Z,9.91
2022-12-23T20:14:43.917Z,9.90
2022-12-23T20:17:14.445Z,9.89
2022-12-23T20:19:52.492Z,9.83
2022-12-23T20:22:19.216Z,9.88
2022-12-23T20:24:46.945Z,9.88
2022-12-23T20:27:16.103Z,9.86
2022-12-23T20:29:43.388Z,9.86
2022-12-23T20:32:10.561Z,9.87
2022-12-23T20:34:40.049Z,9.88
2022-12-23T20:37:07.673Z,9.94
2022-12-23T20:39:35.689Z,10.08
2022-12-23T20:42:02.861Z,10.01
2022-12-23T20:44:39.890Z,9.91
2022-12-23T20:47:06.881Z,9.86
2022-12-23T20:49:39.556Z,9.88
2022-12-23T20:52:12.227Z,9.85
2022-12-23T20:54:38.868Z,9.84
2022-12-23T20:57:07.284Z,10.02
2022-12-23T20:59:33.941Z,9.93
2022-12-23T21:02:01.109Z,9.91
2022-12-23T21:04:36.352Z,9.85
2022-12-23T21:07:12.119Z,9.98
2022-12-23T21:09:41.511Z,10.09
2022-12-23T21:12:08.446Z,10.08
2022-12-23T21:14:37.994Z,10.10
2022-12-23T21:17:05.534Z,10.19
2022-12-23T21:19:32.248Z,10.35
2022-12-23T21:22:00.892Z,10.11
2022-12-23T21:24:28.090Z,10.09
2022-12-23T21:26:58.376Z,10.32
2022-12-23T21:29:29.953Z,10.23
2022-12-23T21:32:05.935Z,10.30
2022-12-23T21:34:32.660Z,10.35
2022-12-23T21:37:02.528Z,10.31
2022-12-23T21:39:35.785Z,10.12
2022-12-23T21:42:03.781Z,10.00
2022-12-23T21:44:32.223Z,10.08
2022-12-23T21:47:01.854Z,10.01
2022-12-23T21:49:31.780Z,9.89
2022-12-23T21:52:01.447Z,10.26
2022-12-23T21:54:33.007Z,10.23
2022-12-23T21:56:59.691Z,10.12
2022-12-23T21:59:31.121Z,10.17
2022-12-23T22:02:01.350Z,10.26
2022-12-23T22:04:32.607Z,10.21
2022-12-23T22:06:59.362Z,10.14
2022-12-23T22:09:27.292Z,9.90
2022-12-23T22:11:56.487Z,9.81
2022-12-23T22:14:23.119Z,10.02
2022-12-23T22:16:49.840Z,9.95
2022-12-23T22:19:19.989Z,9.97
2022-12-23T22:21:46.562Z,9.97
2022-12-23T22:24:13.174Z,10.25
2022-12-23T22:26:42.989Z,10.06
2022-12-23T22:29:10.963Z,9.84
2022-12-23T22:31:49.092Z,9.67
2022-12-23T22:34:18.874Z,9.74
2022-12-23T22:36:48.573Z,9.62
2022-12-23T22:39:21.013Z,9.53
2022-12-23T22:41:51.936Z,9.50
2022-12-23T22:44:19.551Z,9.57
2022-12-23T22:46:46.650Z,9.51
2022-12-23T22:49:14.373Z,9.58
2022-12-23T22:51:44.642Z,9.51
2022-12-23T22:54:11.350Z,9.56
2022-12-23T22:56:38.117Z,9.67
2022-12-23T22:59:05.016Z,9.56
2022-12-23T23:01:36.340Z,9.52
2022-12-23T23:04:04.018Z,9.49
2022-12-23T23:06:36.620Z,9.50
2022-12-23T23:09:05.019Z,9.53
2022-12-23T23:11:31.616Z,9.54
2022-12-23T23:13:58.740Z,9.52
2022-12-23T23:16:25.816Z,9.71
2022-12-23T23:18:53.564Z,10.10
2022-12-23T23:21:25.423Z,10.00
2022-12-23T23:23:58.530Z,9.78
2022-12-23T23:26:27.775Z,9.66
2022-12-23T23:28:57.677Z,9.65
2022-12-23T23:31:45.551Z,9.62
2022-12-23T23:34:13.459Z,9.52
2022-12-23T23:36:45.499Z,9.52
2022-12-23T23:39:12.272Z,9.50
2022-12-23T23:41:45.907Z,9.46
2022-12-23T23:44:15.410Z,9.38
2022-12-23T23:46:46.288Z,9.38
2022-12-23T23:49:15.694Z,9.40
2022-12-23T23:51:42.364Z,9.47
2022-12-23T23:54:12.073Z,9.43
2022-12-23T23:56:39.614Z,9.50
2022-12-23T23:59:11.653Z,9.50
